Aérodrome :
LOGIN :

S'inscrire | Disclaimer

   EN    FR    IT 

 










Légende :    VFR   VFR Marginal   IFR   IFR Intensif   IFR Très Intensif
Visi : 
Plafond : 
>= 8 km
>= 3000ft
5 à 8 km
1000 à 3000 ft
1500m à 5 km
500 à 1000 ft
800 à 1500m
200 à 500 ft
< 800m
< 200 ft
Symboles :   Orages  Brouillard  Fortes neiges  Fortes précipitations  Vent > 20 kt
SIGMETs :   Divers  Orages  Givrage  Turbulence  Onde Orograph.  Cendres Volcan.






- Altitude de l'aérodrome : 3 ft
- Code IATA : DHR


EHKD - Den Helder De Kooy

DERNIER METAR :
  • 162355Z AUTO 23024KT 9999 SCT034 08/04 Q1000 BLU

METARs EXPIRÉS :
  • 162325Z AUTO 24027KT 9999 NCD 08/04 Q0999 BLU
  • 162255Z AUTO 23023KT 9999 NCD 08/05 Q0999 BLU
  • 162225Z AUTO 23020KT 210V270 9999 FEW033 08/05 Q0999 BLU
  • 162155Z AUTO 23020KT 200V260 9999 OVC250 08/06 Q0998 BLU
  • 162125Z AUTO 23021KT 9999 OVC160 08/05 Q0998 BLU

TAF TAF EHKD
Valide du 16 à 14h jusqu'au 17 à 02h UTC


161346Z 1614/1702 20016G26KT 9999 BKN020
PROB40
TEMPO 1614/1617 2500 RADZ SCT004 BKN008
BECMG 1617/1620 24024G34KT
PROB30
TEMPO 1617/1622 23025G45KT SCT016CB BKN020
BECMG 1623/1702 23025G42KT



MET'MAP, la Météo Aéronautique d'un coup d'oeil ! - Copyright ORBIFLY Décembre 2007 - Disclaimer

ORBIFLY MET'MAP TEAM :

Programmation & Développement : Alexandra Zaïnal
Sur une idée originale de : Baudouin d'Aumeries
Assistance à la programmation : Marc-Olivier Méhu
Soutien technique & logistique : Manuel Goepfert

Contact : metmap@orbifly.com




SOURCES & CREDITS :

   NOAA